Карточка аэропорта UOOO

Внимание!
Информация на этой странице в стадии наполнения.
Если вы не увидели какой-то информации, или заметили неточность - пожалуйста сообщите нам!
Спасибо!
Команда RU-STAFF
Название аэропортаАлыкель
Название аэропорта (англ.)Alykel
Превышение574 ft. (175 m.)
Координаты69°19.02', 87°19.02'
Высота перехода1200m
Эшелон переходаQFE>744:FL60;744>QFE>717:FL70;717>QFE:FL80
Коды ответчика5401-5427
Зона ОрВДКрасноярск РПИ (UNKL)
Данные METARUOOO 290800Z 14005MPS CAVOK 03/M04 Q1007 R19/CLRD60 NOSIG RMK QFE739/0986
Проноз погоды (TAF)UOOO 290759Z 2909/3009 12005G12MPS 6000 BKN016 BECMG 2910/2912 06003G08MPS BECMG 2913/2916 02005G12MPS FM300500 16008G18MPS 3500 -SHSN BR OVC006CB TEMPO 3005/3009 0500 SHSN FZFG VV003
NOTAMshow/hide NOTAM
AWOS   TABLE

Информация о ВПП

ВПП Длина ВПП (м.) Покрытие Курс ВПП Частота ILS
013430Бетон13109.5
193430Бетон193110.3

Диспетчерские позиции

Позывной Наименование органа УВД Частота
UOOO_TWRНорильск - Старт118.300
UOOO_GNDНорильск - Руление121.700
UOOO_R_APPНорильск - Круг120.400



Спутниковое изображение